Time;durP1;ratioP1;P1;durP2;ratioP2;P2;SDS_P1;SDS_P2;PMS_P1;PMS_P2;Temp;Humidity;BMP_temperature;BMP_pressure;BME280_temperature;BME280_humidity;BME280_pressure;Samples;Min_cycle;Max_cycle;Signal;HPM_P1;HPM_P2
2022/04/25 00:00:40;;;;;;;2.40;2.30;;;4.80;99.90;;;;;;6173612;28;20235;-65
2022/04/25 00:03:47;;;;;;;2.30;2.20;;;4.80;99.90;;;;;;6172531;28;20240;-66
2022/04/25 00:06:52;;;;;;;2.30;2.30;;;4.80;99.90;;;;;;6173686;28;20234;-66
2022/04/25 00:09:57;;;;;;;2.47;2.27;;;4.80;99.90;;;;;;6173437;28;20233;-66
2022/04/25 00:13:03;;;;;;;2.40;2.20;;;4.80;99.90;;;;;;6173485;28;20244;-66
2022/04/25 00:16:10;;;;;;;2.10;2.00;;;4.80;99.90;;;;;;6174299;28;20236;-65
2022/04/25 00:19:19;;;;;;;1.90;1.80;;;4.90;99.90;;;;;;6172863;28;20711;-65
2022/04/25 00:22:24;;;;;;;2.23;2.07;;;4.90;99.90;;;;;;6172038;28;20236;-65
2022/04/25 00:25:30;;;;;;;2.20;2.10;;;4.80;99.90;;;;;;6173363;28;20237;-68
2022/04/25 00:28:36;;;;;;;2.20;2.10;;;4.90;99.90;;;;;;6173372;28;20559;-66
2022/04/25 00:31:42;;;;;;;2.30;2.20;;;4.90;99.90;;;;;;6173502;28;20245;-66
2022/04/25 00:34:48;;;;;;;2.40;2.07;;;4.80;99.90;;;;;;6172985;28;20244;-66
2022/04/25 00:37:55;;;;;;;2.20;2.20;;;4.80;99.90;;;;;;6172569;28;20608;-67
2022/04/25 00:41:00;;;;;;;1.97;1.97;;;4.80;99.90;;;;;;6173828;28;20684;-67
2022/04/25 00:44:05;;;;;;;2.10;2.10;;;4.80;99.90;;;;;;6155502;28;20229;-66
2022/04/25 00:47:12;;;;;;;1.80;1.80;;;4.70;99.90;;;;;;6173231;28;20237;-66
2022/04/25 00:50:18;;;;;;;1.83;1.83;;;4.70;99.90;;;;;;6173735;28;20247;-67
2022/04/25 00:53:23;;;;;;;1.90;1.90;;;4.80;99.90;;;;;;6172676;28;20640;-67
2022/04/25 00:56:29;;;;;;;2.07;1.97;;;4.80;99.90;;;;;;6173172;28;20252;-66
2022/04/25 00:59:35;;;;;;;2.17;2.07;;;4.80;99.90;;;;;;6172603;28;20230;-67
2022/04/25 01:02:41;;;;;;;2.00;1.90;;;4.70;99.90;;;;;;6173217;28;20245;-66
2022/04/25 01:05:48;;;;;;;2.10;2.00;;;4.60;99.90;;;;;;6173663;28;20249;-66
2022/04/25 01:08:53;;;;;;;2.03;2.03;;;4.60;99.90;;;;;;6171969;28;20233;-66
2022/04/25 01:11:59;;;;;;;2.07;2.07;;;4.60;99.90;;;;;;6172264;28;20235;-67
2022/04/25 01:15:08;;;;;;;2.30;2.20;;;4.70;99.90;;;;;;6172760;28;20229;-66
2022/04/25 01:18:15;;;;;;;2.17;2.17;;;4.60;99.90;;;;;;6171715;28;20299;-66
2022/04/25 01:21:22;;;;;;;1.87;1.87;;;4.60;99.90;;;;;;6172325;28;20730;-66
2022/04/25 01:27:51;;;;;;;2.57;1.97;;;4.70;99.90;;;;;;6171805;28;20608;-66
2022/04/25 01:30:56;;;;;;;1.80;1.73;;;4.50;99.90;;;;;;6172859;28;20722;-66
2022/04/25 01:34:02;;;;;;;1.60;1.57;;;4.50;99.90;;;;;;6172520;28;20229;-66
2022/04/25 01:37:08;;;;;;;1.87;1.87;;;4.40;99.90;;;;;;6172272;28;20253;-65
2022/04/25 01:40:15;;;;;;;2.07;2.00;;;4.50;99.90;;;;;;6172830;28;20679;-66
2022/04/25 01:43:20;;;;;;;2.00;1.93;;;4.40;99.90;;;;;;6173473;28;20457;-67
2022/04/25 01:46:26;;;;;;;1.90;1.80;;;4.40;99.90;;;;;;6174082;28;20267;-66
2022/04/25 01:49:33;;;;;;;1.80;1.80;;;4.40;99.90;;;;;;6173234;28;20557;-68
2022/04/25 01:52:38;;;;;;;1.83;1.80;;;4.50;99.90;;;;;;6173344;28;20244;-66
2022/04/25 01:55:45;;;;;;;2.03;2.00;;;4.40;99.90;;;;;;6174251;28;20241;-66
2022/04/25 01:58:50;;;;;;;2.10;2.00;;;4.40;99.90;;;;;;6173709;28;20239;-67
2022/04/25 02:01:55;;;;;;;1.90;1.80;;;4.40;99.90;;;;;;6174528;28;20233;-65
2022/04/25 02:05:01;;;;;;;1.90;1.80;;;4.30;99.90;;;;;;6173667;28;20236;-67
2022/04/25 02:08:08;;;;;;;1.70;1.60;;;4.30;99.90;;;;;;6170852;28;20244;-65
2022/04/25 02:11:21;;;;;;;1.90;1.90;;;4.30;99.90;;;;;;6172699;28;20237;-65
2022/04/25 02:14:29;;;;;;;1.73;1.73;;;4.40;99.90;;;;;;6171940;28;20236;-65
2022/04/25 02:17:35;;;;;;;2.10;2.00;;;4.30;99.90;;;;;;6175285;28;20247;-67
2022/04/25 02:20:41;;;;;;;2.13;2.07;;;4.30;99.90;;;;;;6172419;28;20238;-65
2022/04/25 02:23:47;;;;;;;1.80;1.80;;;4.30;99.90;;;;;;6176250;28;20331;-66
2022/04/25 02:26:54;;;;;;;1.80;1.80;;;4.30;99.90;;;;;;6175855;28;20242;-65
2022/04/25 02:29:59;;;;;;;1.80;1.80;;;4.20;99.90;;;;;;6175879;28;20256;-66
2022/04/25 02:33:04;;;;;;;2.00;1.90;;;4.20;99.90;;;;;;6175179;28;20571;-66
2022/04/25 02:36:10;;;;;;;1.63;1.63;;;4.10;99.90;;;;;;6176046;28;20229;-66
2022/04/25 02:39:15;;;;;;;1.83;1.73;;;4.20;99.90;;;;;;6175521;28;20239;-66
2022/04/25 02:42:22;;;;;;;2.07;2.00;;;4.10;99.90;;;;;;6175573;28;20265;-65
2022/04/25 02:45:27;;;;;;;1.63;1.63;;;4.20;99.90;;;;;;6175819;28;20232;-65
2022/04/25 02:48:33;;;;;;;1.93;1.93;;;4.20;99.90;;;;;;6175383;28;20239;-67
2022/04/25 02:51:38;;;;;;;1.60;1.60;;;4.00;99.90;;;;;;6175338;28;20670;-66
2022/04/25 02:54:43;;;;;;;1.80;1.70;;;4.10;99.90;;;;;;6175128;28;20237;-65
2022/04/25 02:57:50;;;;;;;1.90;1.80;;;4.10;99.90;;;;;;6174884;28;20612;-66
2022/04/25 03:00:55;;;;;;;2.67;1.93;;;4.10;99.90;;;;;;6177726;28;20684;-65
2022/04/25 03:04:01;;;;;;;1.83;1.83;;;4.10;99.90;;;;;;6174312;28;20249;-66
2022/04/25 03:07:06;;;;;;;1.80;1.80;;;4.10;99.90;;;;;;6177109;28;20263;-66
2022/04/25 03:10:12;;;;;;;1.60;1.60;;;4.00;99.90;;;;;;6176906;28;20232;-67
2022/04/25 03:13:20;;;;;;;1.87;1.77;;;4.10;99.90;;;;;;6174502;28;20625;-66
2022/04/25 03:16:25;;;;;;;1.83;1.83;;;4.00;99.90;;;;;;6175101;28;20248;-65
2022/04/25 03:19:30;;;;;;;2.07;1.70;;;4.00;99.90;;;;;;6174959;28;20711;-66
2022/04/25 03:22:36;;;;;;;1.73;1.73;;;4.00;99.90;;;;;;6175778;28;20237;-66
2022/04/25 03:25:42;;;;;;;1.83;1.83;;;3.90;99.90;;;;;;6179249;28;20262;-65
2022/04/25 03:28:49;;;;;;;2.00;1.73;;;3.90;99.90;;;;;;6180475;28;20240;-67
2022/04/25 03:31:54;;;;;;;2.07;2.00;;;3.90;99.90;;;;;;6173282;28;20239;-65
2022/04/25 03:35:03;;;;;;;1.80;1.80;;;3.90;99.90;;;;;;6174191;28;20242;-65
2022/04/25 03:38:12;;;;;;;1.60;1.60;;;3.90;99.90;;;;;;6174219;28;20228;-66
2022/04/25 03:41:18;;;;;;;1.90;1.90;;;4.00;99.90;;;;;;6174900;28;20241;-66
2022/04/25 03:44:24;;;;;;;1.70;1.60;;;4.00;99.90;;;;;;6157026;28;20602;-65
2022/04/25 03:47:30;;;;;;;3.40;1.60;;;4.00;99.90;;;;;;6173449;28;20270;-66
2022/04/25 03:50:35;;;;;;;1.50;1.50;;;4.00;99.90;;;;;;6173807;28;20240;-65
2022/04/25 03:53:41;;;;;;;1.50;1.50;;;4.00;99.90;;;;;;6173742;28;20240;-66
2022/04/25 04:00:13;;;;;;;1.57;1.57;;;4.00;99.90;;;;;;6172729;28;20246;-66
2022/04/25 04:03:20;;;;;;;1.77;1.70;;;3.90;99.90;;;;;;6173317;28;20236;-66
2022/04/25 04:06:25;;;;;;;3.20;1.50;;;3.90;99.90;;;;;;6173741;28;20243;-65
2022/04/25 04:09:49;;;;;;;1.60;1.50;;;4.00;99.90;;;;;;6173168;28;20237;-66
2022/04/25 04:12:55;;;;;;;1.43;1.43;;;4.00;99.90;;;;;;6149341;28;20245;-67
2022/04/25 04:16:08;;;;;;;1.70;1.40;;;4.00;99.90;;;;;;6150228;28;20233;-66
2022/04/25 04:19:13;;;;;;;1.57;1.57;;;4.00;99.90;;;;;;6149411;28;20249;-65
2022/04/25 04:22:18;;;;;;;1.53;1.53;;;4.00;99.90;;;;;;6149651;28;20231;-66
2022/04/25 04:25:23;;;;;;;1.50;1.40;;;4.00;99.90;;;;;;6148953;28;20641;-66
2022/04/25 04:28:37;;;;;;;1.50;1.50;;;4.00;99.90;;;;;;6149740;28;20237;-65
2022/04/25 04:31:46;;;;;;;1.50;1.50;;;4.10;99.90;;;;;;6159203;28;20237;-65
2022/04/25 04:34:51;;;;;;;3.10;1.40;;;4.20;99.90;;;;;;6156040;28;20258;-67
2022/04/25 04:37:56;;;;;;;1.83;1.73;;;4.10;99.90;;;;;;6129277;28;20261;-65
2022/04/25 04:41:01;;;;;;;1.57;1.57;;;4.10;99.90;;;;;;6166838;28;20241;-66
2022/04/25 04:44:06;;;;;;;1.33;1.23;;;4.10;99.90;;;;;;6147008;28;20225;-66
2022/04/25 04:47:15;;;;;;;1.63;1.53;;;4.10;99.90;;;;;;6149911;28;20228;-67
2022/04/25 04:50:20;;;;;;;1.27;1.27;;;4.20;99.90;;;;;;6149321;28;20237;-65
2022/04/25 04:53:25;;;;;;;1.50;1.50;;;4.20;99.90;;;;;;6149268;28;20271;-66
2022/04/25 04:56:31;;;;;;;1.20;1.20;;;4.20;99.90;;;;;;6148781;28;20325;-68
2022/04/25 04:59:37;;;;;;;1.50;1.40;;;4.20;99.90;;;;;;6149129;28;20244;-65
2022/04/25 05:02:44;;;;;;;1.53;1.37;;;4.20;99.90;;;;;;6148425;28;20240;-67
2022/04/25 05:05:51;;;;;;;1.40;1.30;;;4.30;99.90;;;;;;6148840;28;20233;-66
2022/04/25 05:08:57;;;;;;;1.40;1.40;;;4.30;99.90;;;;;;6148507;28;20240;-66
2022/04/25 05:12:02;;;;;;;1.20;1.20;;;4.40;99.90;;;;;;6168084;28;20228;-66
2022/04/25 05:15:11;;;;;;;1.33;1.33;;;4.40;99.90;;;;;;6172142;28;20584;-67
2022/04/25 05:18:19;;;;;;;1.20;1.20;;;4.50;99.90;;;;;;6171967;28;20602;-66
2022/04/25 05:21:25;;;;;;;3.33;1.43;;;4.60;99.90;;;;;;6173065;28;20233;-66
2022/04/25 05:24:30;;;;;;;1.53;1.43;;;4.60;99.90;;;;;;6172179;28;20241;-66
2022/04/25 05:27:37;;;;;;;1.90;1.20;;;4.70;99.90;;;;;;6172409;28;20236;-66
2022/04/25 05:30:44;;;;;;;2.13;1.40;;;4.80;99.90;;;;;;6172252;28;20596;-67
2022/04/25 05:33:51;;;;;;;2.40;1.17;;;4.90;99.90;;;;;;6172246;28;20570;-65
2022/04/25 05:36:56;;;;;;;1.27;1.27;;;4.90;99.90;;;;;;6172388;28;20243;-66
2022/04/25 05:40:01;;;;;;;1.17;1.17;;;4.90;99.90;;;;;;6171776;28;20245;-66
2022/04/25 05:43:08;;;;;;;2.33;1.20;;;5.10;99.90;;;;;;6172017;28;20237;-66
2022/04/25 05:46:13;;;;;;;1.37;1.27;;;5.00;99.90;;;;;;6172395;28;20722;-66
2022/04/25 05:52:43;;;;;;;3.90;1.27;;;5.20;99.90;;;;;;6171677;28;20241;-68
2022/04/25 05:55:49;;;;;;;1.42;1.40;;;5.20;99.90;;;;;;6173634;28;20729;-64
2022/04/25 05:58:54;;;;;;;2.10;1.47;;;5.30;99.90;;;;;;6177363;28;20254;-66
2022/04/25 06:02:00;;;;;;;1.10;1.10;;;5.30;99.90;;;;;;6176360;28;20240;-67
2022/04/25 06:05:09;;;;;;;1.27;1.10;;;5.40;99.90;;;;;;6175998;28;20237;-67
2022/04/25 06:08:15;;;;;;;1.30;1.30;;;5.50;99.90;;;;;;6174623;28;20240;-68
2022/04/25 06:11:21;;;;;;;1.50;1.30;;;5.60;99.90;;;;;;6176327;28;20242;-65
2022/04/25 06:14:28;;;;;;;1.43;1.40;;;5.70;99.80;;;;;;6176154;28;20249;-65
2022/04/25 06:17:33;;;;;;;1.10;1.10;;;5.80;99.70;;;;;;6176319;28;20237;-67
2022/04/25 06:20:40;;;;;;;1.47;1.20;;;5.90;99.50;;;;;;6176415;28;20245;-68
2022/04/25 06:23:45;;;;;;;2.60;1.30;;;6.10;99.40;;;;;;6176264;28;20241;-66
2022/04/25 06:26:51;;;;;;;1.93;1.50;;;6.20;99.50;;;;;;6176696;28;20244;-67
2022/04/25 06:29:56;;;;;;;5.67;1.60;;;6.30;98.90;;;;;;6176017;28;20235;-67
2022/04/25 06:33:11;;;;;;;1.80;1.60;;;6.50;98.30;;;;;;6175818;28;20239;-68
2022/04/25 06:36:18;;;;;;;1.40;1.40;;;6.60;98.10;;;;;;6158943;28;20233;-67
2022/04/25 06:39:23;;;;;;;1.87;1.87;;;6.70;97.50;;;;;;6175316;28;20230;-66
2022/04/25 06:42:28;;;;;;;1.40;1.40;;;6.80;97.20;;;;;;6175988;28;20257;-67
2022/04/25 06:45:34;;;;;;;1.57;1.50;;;6.90;97.10;;;;;;6175728;28;20234;-66
2022/04/25 06:48:40;;;;;;;1.60;1.50;;;7.00;96.40;;;;;;6175932;28;20249;-66
2022/04/25 06:51:47;;;;;;;2.83;1.37;;;7.10;96.20;;;;;;6176333;28;20249;-66
2022/04/25 06:54:52;;;;;;;1.40;1.40;;;7.20;96.20;;;;;;6176134;28;20342;-67
2022/04/25 06:58:00;;;;;;;4.18;1.55;;;7.40;95.40;;;;;;6175814;28;20241;-66
2022/04/25 07:01:05;;;;;;;1.37;1.37;;;7.50;95.30;;;;;;6176156;28;20237;-66
2022/04/25 07:04:12;;;;;;;2.58;2.40;;;7.60;94.80;;;;;;6175866;28;20549;-68
2022/04/25 07:07:19;;;;;;;2.90;1.92;;;7.70;94.90;;;;;;6149444;28;20263;-66
2022/04/25 07:10:24;;;;;;;2.35;1.70;;;7.80;94.40;;;;;;6175373;28;20708;-67
2022/04/25 07:13:30;;;;;;;1.77;1.70;;;7.90;94.40;;;;;;6175536;28;20241;-67
2022/04/25 07:16:40;;;;;;;2.13;1.90;;;8.10;94.20;;;;;;6175723;28;20238;-69
2022/04/25 07:19:45;;;;;;;2.28;1.60;;;8.20;93.90;;;;;;6175588;28;20568;-67
2022/04/25 07:29:37;;;;;;;2.05;1.50;;;8.10;92.60;;;;;;6184225;28;20238;-66
2022/04/25 07:32:43;;;;;;;1.90;1.80;;;8.10;93.20;;;;;;6184209;28;20243;-68
2022/04/25 07:35:49;;;;;;;4.15;1.90;;;8.20;92.60;;;;;;6175342;28;20257;-67
2022/04/25 07:38:56;;;;;;;2.67;1.77;;;8.30;92.50;;;;;;6174304;28;20685;-67
2022/04/25 07:42:01;;;;;;;1.90;1.80;;;8.40;92.10;;;;;;6175162;28;20246;-67
2022/04/25 07:45:08;;;;;;;4.93;1.75;;;8.50;92.00;;;;;;6172715;28;20226;-66
2022/04/25 07:48:17;;;;;;;7.75;2.00;;;8.60;91.10;;;;;;6174480;28;20231;-67
2022/04/25 07:51:22;;;;;;;3.85;1.95;;;8.70;91.30;;;;;;6175336;28;20564;-67
2022/04/25 07:54:29;;;;;;;1.85;1.75;;;8.70;91.10;;;;;;6174156;28;20240;-67
2022/04/25 07:57:35;;;;;;;2.33;2.00;;;8.80;91.40;;;;;;6174363;28;20596;-66
2022/04/25 08:00:41;;;;;;;2.40;2.20;;;8.80;90.70;;;;;;6174432;28;20235;-67
2022/04/25 08:03:47;;;;;;;2.55;1.83;;;8.90;90.70;;;;;;6173315;28;20269;-68
2022/04/25 08:06:52;;;;;;;2.03;2.03;;;8.90;90.30;;;;;;6174164;28;20235;-67
2022/04/25 08:09:59;;;;;;;1.92;1.92;;;8.90;91.00;;;;;;6173423;28;20226;-67
2022/04/25 08:19:50;;;;;;;2.47;1.95;;;9.10;89.70;;;;;;6172132;28;20231;-66
2022/04/25 08:22:56;;;;;;;2.03;1.95;;;9.20;90.70;;;;;;6173407;28;20234;-67
2022/04/25 08:26:04;;;;;;;3.85;1.80;;;9.20;88.00;;;;;;6173148;28;20227;-67
2022/04/25 08:29:11;;;;;;;2.65;1.95;;;9.30;87.30;;;;;;6172837;28;20226;-66
2022/04/25 08:32:17;;;;;;;7.32;2.08;;;9.40;86.40;;;;;;6173358;28;20246;-67
2022/04/25 08:35:23;;;;;;;2.20;1.70;;;9.50;87.30;;;;;;6173241;28;20249;-66
2022/04/25 08:38:28;;;;;;;5.47;2.20;;;9.50;85.20;;;;;;6172823;28;20226;-67
2022/04/25 08:41:39;;;;;;;2.20;2.10;;;9.60;84.50;;;;;;6173853;28;20234;-66
2022/04/25 08:44:45;;;;;;;2.60;2.50;;;9.70;83.10;;;;;;6172569;28;20230;-68
2022/04/25 08:47:55;;;;;;;1.90;1.90;;;9.70;81.90;;;;;;6172787;28;20264;-68
2022/04/25 08:51:00;;;;;;;3.90;1.90;;;9.70;82.40;;;;;;6173545;28;20570;-67
2022/04/25 08:54:08;;;;;;;2.80;2.35;;;9.80;84.50;;;;;;6172547;28;20248;-67
2022/04/25 08:57:17;;;;;;;1.77;1.77;;;9.90;83.40;;;;;;6172924;28;20578;-68
2022/04/25 09:00:22;;;;;;;2.40;1.90;;;9.80;82.20;;;;;;6172762;28;20238;-67
2022/04/25 09:03:27;;;;;;;1.95;1.92;;;9.90;82.90;;;;;;6172621;28;20234;-67
2022/04/25 09:06:33;;;;;;;4.40;1.98;;;10.00;82.00;;;;;;6176410;28;20230;-67
2022/04/25 09:09:40;;;;;;;3.63;1.70;;;10.10;82.30;;;;;;6176438;28;20246;-67
2022/04/25 09:12:47;;;;;;;2.05;1.90;;;10.10;78.90;;;;;;6173686;28;20242;-67
2022/04/25 09:15:55;;;;;;;4.40;1.73;;;10.20;78.60;;;;;;6172966;28;20241;-67
2022/04/25 09:19:00;;;;;;;1.85;1.85;;;10.20;79.30;;;;;;6172218;28;20222;-66
2022/04/25 09:22:07;;;;;;;2.17;2.00;;;10.30;74.70;;;;;;6172379;28;20228;-67
2022/04/25 09:25:15;;;;;;;2.67;1.80;;;10.20;71.40;;;;;;6171654;28;20230;-68
2022/04/25 09:28:49;;;;;;;2.22;1.95;;;10.30;76.60;;;;;;6172219;28;20689;-67
2022/04/25 09:31:55;;;;;;;2.03;1.60;;;10.30;74.60;;;;;;6172458;28;20238;-67
2022/04/25 09:35:33;;;;;;;1.60;1.50;;;10.30;73.30;;;;;;6171952;28;20254;-68
2022/04/25 09:38:41;;;;;;;2.40;1.98;;;10.40;72.20;;;;;;6154657;28;20234;-68
2022/04/25 09:41:48;;;;;;;1.83;1.80;;;10.50;73.60;;;;;;6172210;28;20541;-67
2022/04/25 09:44:59;;;;;;;8.90;2.05;;;10.50;71.50;;;;;;6171669;28;20708;-67
2022/04/25 09:48:11;;;;;;;2.50;1.75;;;10.80;71.50;;;;;;6171438;28;20226;-67
2022/04/25 09:51:17;;;;;;;1.90;1.80;;;10.80;69.20;;;;;;6172279;28;20249;-67
2022/04/25 09:54:25;;;;;;;1.77;1.73;;;10.90;68.40;;;;;;6171914;28;20245;-67
2022/04/25 09:57:31;;;;;;;1.73;1.67;;;11.00;65.80;;;;;;6172319;28;20256;-68
2022/04/25 10:00:39;;;;;;;3.38;1.77;;;11.00;64.20;;;;;;6171614;28;20230;-67
2022/04/25 10:03:44;;;;;;;6.93;2.17;;;11.00;65.00;;;;;;6171116;28;20557;-68
2022/04/25 10:06:51;;;;;;;2.00;2.00;;;11.00;66.70;;;;;;6172221;28;20231;-67
2022/04/25 10:09:56;;;;;;;2.60;2.10;;;11.10;66.20;;;;;;6171160;28;20253;-67
2022/04/25 10:13:04;;;;;;;2.30;2.17;;;11.30;66.20;;;;;;6171810;28;20230;-67
2022/04/25 10:16:13;;;;;;;2.75;1.85;;;11.20;64.80;;;;;;6172067;28;20230;-67
2022/04/25 10:19:19;;;;;;;15.60;3.80;;;11.30;65.20;;;;;;6171366;28;20226;-67
2022/04/25 10:22:25;;;;;;;2.28;2.17;;;11.40;65.80;;;;;;6172189;28;20250;-67
2022/04/25 10:25:33;;;;;;;3.60;2.25;;;11.40;65.50;;;;;;6170918;28;20247;-67
2022/04/25 10:28:42;;;;;;;2.20;2.10;;;11.50;64.80;;;;;;6170905;28;20242;-67
2022/04/25 10:31:50;;;;;;;2.08;1.98;;;11.60;62.40;;;;;;6171669;28;20317;-68
2022/04/25 10:35:00;;;;;;;5.15;2.20;;;11.60;62.40;;;;;;6170910;28;20241;-68
2022/04/25 10:38:50;;;;;;;2.10;2.10;;;11.70;64.20;;;;;;6171024;28;20227;-67
2022/04/25 10:45:54;;;;;;;4.00;2.10;;;11.80;63.50;;;;;;6175344;28;20231;-67
2022/04/25 10:49:07;;;;;;;7.93;2.28;;;11.90;61.50;;;;;;6173714;28;20256;-68
2022/04/25 10:52:57;;;;;;;4.88;2.28;;;11.90;62.10;;;;;;6175919;28;20235;-66
2022/04/25 10:56:09;;;;;;;4.55;2.25;;;12.00;60.60;;;;;;6174717;28;20230;-67
2022/04/25 10:59:25;;;;;;;2.28;2.15;;;12.10;59.60;;;;;;6175862;28;20244;-67
2022/04/25 11:02:31;;;;;;;2.20;2.17;;;12.10;59.40;;;;;;6175605;28;20227;-67
2022/04/25 11:05:40;;;;;;;3.50;2.28;;;12.20;58.80;;;;;;6174321;28;20261;-67
2022/04/25 11:08:52;;;;;;;2.50;2.28;;;12.30;58.10;;;;;;6157427;28;20230;-66
2022/04/25 11:11:57;;;;;;;2.22;2.05;;;12.30;58.20;;;;;;6175532;28;20285;-68
2022/04/25 11:15:06;;;;;;;9.55;2.60;;;12.40;57.90;;;;;;6173549;28;20231;-67
2022/04/25 11:18:23;;;;;;;3.30;2.22;;;12.40;57.50;;;;;;6175083;28;20238;-67
2022/04/25 11:21:33;;;;;;;3.45;2.25;;;12.50;57.10;;;;;;6175162;28;20239;-68
2022/04/25 11:24:39;;;;;;;7.25;2.42;;;12.60;56.50;;;;;;6174684;28;20690;-67
2022/04/25 11:28:04;;;;;;;2.83;2.60;;;12.70;56.10;;;;;;6174763;28;20256;-69
2022/04/25 11:31:23;;;;;;;3.20;2.50;;;12.80;56.40;;;;;;6175376;28;20226;-68
2022/04/25 11:34:29;;;;;;;4.85;2.50;;;12.70;55.50;;;;;;6174126;28;20241;-67
2022/04/25 11:37:37;;;;;;;2.47;2.25;;;12.70;55.10;;;;;;6175110;28;20234;-68
2022/04/25 11:40:43;;;;;;;2.60;2.40;;;12.70;55.70;;;;;;6174432;28;20240;-68
2022/04/25 11:43:48;;;;;;;2.72;2.38;;;12.70;54.70;;;;;;6174313;28;20286;-67
2022/04/25 11:46:53;;;;;;;2.50;2.20;;;12.80;54.20;;;;;;6174926;28;20701;-67
2022/04/25 11:50:01;;;;;;;2.40;2.25;;;12.90;53.80;;;;;;6173865;28;20231;-67
2022/04/25 11:53:10;;;;;;;7.78;2.85;;;12.90;54.10;;;;;;6174397;28;20233;-67
2022/04/25 11:56:16;;;;;;;6.80;2.70;;;12.90;54.40;;;;;;6173938;28;20253;-67
2022/04/25 11:59:21;;;;;;;4.90;2.50;;;12.90;53.90;;;;;;6174119;28;20242;-68
2022/04/25 12:02:36;;;;;;;3.80;2.67;;;12.90;54.00;;;;;;6174689;28;20243;-68
2022/04/25 12:05:41;;;;;;;2.38;2.15;;;12.90;54.00;;;;;;6174136;28;20246;-67
2022/04/25 12:15:40;;;;;;;2.97;2.78;;;13.20;53.30;;;;;;6174231;28;20246;-67
2022/04/25 12:18:52;;;;;;;3.38;2.40;;;13.20;52.40;;;;;;6173882;28;20235;-69
2022/04/25 12:22:01;;;;;;;2.72;2.63;;;13.10;52.00;;;;;;6174361;28;20242;-68
2022/04/25 12:25:20;;;;;;;2.67;2.30;;;13.30;52.60;;;;;;6173021;28;20601;-66
2022/04/25 12:28:27;;;;;;;2.22;2.22;;;13.40;52.10;;;;;;6173990;28;20241;-68
2022/04/25 12:31:38;;;;;;;2.10;2.00;;;13.30;51.00;;;;;;6176027;28;20235;-67
2022/04/25 12:34:44;;;;;;;3.10;2.70;;;13.30;51.40;;;;;;6177364;28;20285;-67
2022/04/25 12:37:49;;;;;;;3.35;2.58;;;13.30;50.50;;;;;;6176438;28;20234;-69
2022/04/25 12:40:57;;;;;;;2.78;2.58;;;13.40;50.80;;;;;;6181170;28;20229;-68
2022/04/25 12:44:14;;;;;;;2.10;2.10;;;13.40;50.70;;;;;;6185967;28;20234;-66
2022/04/25 12:47:20;;;;;;;2.20;2.10;;;13.50;50.60;;;;;;6191087;28;20556;-68
2022/04/25 12:50:42;;;;;;;5.25;2.38;;;13.60;50.60;;;;;;6186946;28;20230;-67
2022/04/25 12:53:48;;;;;;;2.40;2.30;;;13.70;50.40;;;;;;6173152;28;20243;-68
2022/04/25 12:57:09;;;;;;;2.83;2.53;;;13.70;50.40;;;;;;6173191;28;20247;-68
2022/04/25 13:00:18;;;;;;;2.95;2.30;;;13.80;50.10;;;;;;6172270;28;20245;-67
2022/04/25 13:03:25;;;;;;;2.42;2.30;;;13.70;50.50;;;;;;6172230;28;20253;-68
2022/04/25 13:06:30;;;;;;;2.28;2.17;;;13.80;50.00;;;;;;6173095;28;20269;-68
2022/04/25 13:09:36;;;;;;;5.35;1.92;;;13.80;50.00;;;;;;6172389;28;20269;-68
2022/04/25 13:12:44;;;;;;;2.15;2.05;;;13.80;49.60;;;;;;6149200;28;20231;-68
2022/04/25 13:15:50;;;;;;;2.08;2.08;;;13.80;49.90;;;;;;6148722;28;20250;-69
2022/04/25 13:18:55;;;;;;;2.00;1.90;;;13.80;49.80;;;;;;6148364;28;20238;-68
2022/04/25 13:22:01;;;;;;;2.10;1.90;;;13.80;49.40;;;;;;6152763;28;20712;-67
2022/04/25 13:25:14;;;;;;;2.67;2.53;;;13.80;49.50;;;;;;6152857;28;20245;-68
2022/04/25 13:28:21;;;;;;;6.93;2.00;;;13.80;48.80;;;;;;6153311;28;20242;-69
2022/04/25 13:31:26;;;;;;;2.38;1.90;;;13.90;48.80;;;;;;6152930;28;20232;-69
2022/04/25 13:34:32;;;;;;;2.88;2.20;;;14.00;48.80;;;;;;6154499;28;20241;-68
2022/04/25 13:37:39;;;;;;;2.00;2.00;;;14.00;49.10;;;;;;6148278;28;20246;-67
2022/04/25 13:40:45;;;;;;;5.53;2.20;;;14.10;48.90;;;;;;6148081;28;20233;-67
2022/04/25 13:43:53;;;;;;;4.68;2.08;;;14.10;48.70;;;;;;6148087;28;20310;-68
2022/04/25 13:47:00;;;;;;;1.95;1.85;;;14.10;47.70;;;;;;6148259;28;20238;-66
2022/04/25 13:50:07;;;;;;;2.05;2.03;;;14.00;46.90;;;;;;6147424;28;20247;-67
2022/04/25 13:53:12;;;;;;;2.63;2.33;;;14.10;47.40;;;;;;6147708;28;20238;-67
2022/04/25 13:56:19;;;;;;;2.00;2.00;;;14.10;46.60;;;;;;6147935;28;20239;-66
2022/04/25 13:59:26;;;;;;;3.55;2.05;;;14.30;47.30;;;;;;6147162;28;20690;-66
2022/04/25 14:05:54;;;;;;;2.35;2.25;;;14.30;46.80;;;;;;6147308;28;20254;-67
2022/04/25 14:09:01;;;;;;;7.65;2.30;;;14.30;47.10;;;;;;6147264;28;20691;-68
2022/04/25 14:12:08;;;;;;;1.85;1.80;;;14.40;46.30;;;;;;6167897;28;20234;-67
2022/04/25 14:15:17;;;;;;;3.15;2.20;;;14.40;45.60;;;;;;6170816;28;20677;-67
2022/04/25 14:18:22;;;;;;;1.98;1.77;;;14.30;45.30;;;;;;6173204;28;20682;-68
2022/04/25 14:21:29;;;;;;;2.47;1.83;;;14.40;45.40;;;;;;6176491;28;20537;-66
2022/04/25 14:24:35;;;;;;;2.30;2.20;;;14.40;45.90;;;;;;6176169;28;20283;-68
2022/04/25 14:27:41;;;;;;;2.10;2.10;;;14.40;45.90;;;;;;6176621;28;20720;-68
2022/04/25 14:30:48;;;;;;;5.05;2.30;;;14.40;44.70;;;;;;6175567;28;20574;-67
2022/04/25 14:33:53;;;;;;;2.00;2.00;;;14.40;44.70;;;;;;6175208;28;20327;-68
2022/04/25 14:36:59;;;;;;;4.03;1.88;;;14.50;44.50;;;;;;6176045;28;20249;-67
2022/04/25 14:40:04;;;;;;;2.05;1.95;;;14.50;44.70;;;;;;6175466;28;20226;-67
2022/04/25 14:43:11;;;;;;;1.90;1.80;;;14.40;44.20;;;;;;6175301;28;20563;-66
2022/04/25 14:46:18;;;;;;;1.80;1.80;;;14.50;44.90;;;;;;6175878;28;20227;-67
2022/04/25 14:54:20;;;;;;;1.80;1.80;;;14.50;44.30;;;;;;6175638;28;20261;-68
2022/04/25 14:56:13;;;;;;;2.45;2.00;;;14.50;45.50;;;;;;6176028;28;20321;-67
2022/04/25 14:59:19;;;;;;;2.17;1.85;;;14.60;44.80;;;;;;6175082;28;20266;-67
2022/04/25 15:02:26;;;;;;;2.58;2.30;;;14.50;43.80;;;;;;6175446;28;20708;-67
2022/04/25 15:05:32;;;;;;;5.60;2.30;;;14.60;44.50;;;;;;6174941;28;20253;-68
2022/04/25 15:08:40;;;;;;;1.95;1.80;;;14.70;43.60;;;;;;6175039;28;20245;-68
2022/04/25 15:11:46;;;;;;;2.15;1.75;;;14.70;43.40;;;;;;6175520;28;20306;-67
2022/04/25 15:14:51;;;;;;;2.80;1.70;;;14.70;43.20;;;;;;6175297;28;20242;-67
2022/04/25 15:17:58;;;;;;;2.58;1.90;;;14.70;42.70;;;;;;6174594;28;20242;-67
2022/04/25 15:21:03;;;;;;;1.65;1.58;;;14.70;43.30;;;;;;6175444;28;20690;-67
2022/04/25 15:24:11;;;;;;;1.73;1.73;;;14.70;42.80;;;;;;6174738;28;20237;-68
2022/04/25 15:27:19;;;;;;;4.18;1.95;;;14.70;42.40;;;;;;6175466;28;20249;-68
2022/04/25 15:30:25;;;;;;;1.58;1.48;;;14.60;43.20;;;;;;6173965;28;20227;-67
2022/04/25 15:33:31;;;;;;;2.92;1.88;;;14.70;42.70;;;;;;6174447;28;20245;-67
2022/04/25 15:36:37;;;;;;;4.68;1.77;;;14.70;42.90;;;;;;6175121;28;20267;-67
2022/04/25 15:39:44;;;;;;;1.50;1.50;;;14.60;42.10;;;;;;6174008;28;20269;-69
2022/04/25 15:42:49;;;;;;;2.40;2.20;;;14.60;43.20;;;;;;6174315;28;20272;-67
2022/04/25 15:45:55;;;;;;;2.10;1.88;;;14.60;43.30;;;;;;6175023;28;20608;-67
2022/04/25 15:49:03;;;;;;;3.33;1.60;;;14.60;43.00;;;;;;6173817;28;20677;-67
2022/04/25 15:52:08;;;;;;;3.13;1.80;;;14.60;42.70;;;;;;6174077;28;20332;-69
2022/04/25 15:58:36;;;;;;;2.13;1.90;;;14.60;43.20;;;;;;6174431;28;20243;-67
2022/04/25 16:01:41;;;;;;;1.73;1.60;;;14.70;44.30;;;;;;6174064;28;20602;-66
2022/04/25 16:04:49;;;;;;;1.70;1.60;;;14.70;43.30;;;;;;6175300;28;20232;-67
2022/04/25 16:07:54;;;;;;;1.73;1.60;;;14.70;43.90;;;;;;6176969;28;20239;-67
2022/04/25 16:11:01;;;;;;;3.92;1.58;;;14.70;43.50;;;;;;6174720;28;20238;-67
2022/04/25 16:14:06;;;;;;;3.10;1.70;;;14.70;43.70;;;;;;6173891;28;20684;-67
2022/04/25 16:17:13;;;;;;;3.65;1.42;;;14.60;44.30;;;;;;6173978;28;20235;-67
2022/04/25 16:20:20;;;;;;;1.50;1.50;;;14.70;43.80;;;;;;6155851;28;20245;-68
2022/04/25 16:23:25;;;;;;;2.60;1.80;;;14.60;44.20;;;;;;6173384;28;20242;-67
2022/04/25 16:26:31;;;;;;;1.50;1.50;;;14.40;47.90;;;;;;6174008;28;20533;-67
2022/04/25 16:29:36;;;;;;;2.85;1.50;;;14.30;50.00;;;;;;6172760;28;20231;-67
2022/04/25 16:32:43;;;;;;;1.52;1.52;;;14.20;50.80;;;;;;6173555;28;20227;-68
2022/04/25 16:35:49;;;;;;;1.60;1.52;;;13.90;52.20;;;;;;6173602;28;20244;-66
2022/04/25 16:38:54;;;;;;;6.55;2.10;;;13.90;53.20;;;;;;6173008;28;20241;-68
2022/04/25 16:42:03;;;;;;;2.08;1.83;;;13.90;53.90;;;;;;6155737;28;20241;-67
2022/04/25 16:45:11;;;;;;;1.70;1.70;;;13.80;54.60;;;;;;6172972;28;20275;-66
2022/04/25 16:48:16;;;;;;;1.95;1.83;;;13.70;55.10;;;;;;6172945;28;20586;-68
2022/04/25 16:51:23;;;;;;;2.03;1.98;;;13.60;56.20;;;;;;6173002;28;20231;-67
2022/04/25 16:54:29;;;;;;;1.60;1.50;;;13.40;56.80;;;;;;6172785;28;20239;-68
2022/04/25 16:57:35;;;;;;;3.70;1.80;;;13.40;57.30;;;;;;6173012;28;20261;-67
2022/04/25 17:00:40;;;;;;;2.53;1.70;;;13.30;57.50;;;;;;6172936;28;20326;-68
2022/04/25 17:03:46;;;;;;;6.90;2.10;;;13.20;57.80;;;;;;6172101;28;20707;-67
2022/04/25 17:06:52;;;;;;;10.60;1.98;;;13.10;58.20;;;;;;6173687;28;20231;-68